createdAt,value
2022-11-08T00:01:32.826Z,7.41
2022-11-08T00:03:59.873Z,7.28
2022-11-08T00:06:26.323Z,6.86
2022-11-08T00:08:52.769Z,6.98
2022-11-08T00:11:20.289Z,7.07
2022-11-08T00:13:46.716Z,7.03
2022-11-08T00:16:15.756Z,7.06
2022-11-08T00:18:43.742Z,7.14
2022-11-08T00:21:11.544Z,7.20
2022-11-08T00:23:39.317Z,7.23
2022-11-08T00:26:05.802Z,7.24
2022-11-08T00:28:32.190Z,7.21
2022-11-08T00:30:58.630Z,7.23
2022-11-08T00:33:25.292Z,7.24
2022-11-08T00:35:51.655Z,7.22
2022-11-08T00:38:18.638Z,7.19
2022-11-08T00:40:45.554Z,7.19
2022-11-08T00:43:11.966Z,7.17
2022-11-08T00:45:38.329Z,7.20
2022-11-08T00:48:05.427Z,7.07
2022-11-08T00:50:31.826Z,7.05
2022-11-08T00:52:58.282Z,7.02
2022-11-08T00:55:25.161Z,7.05
2022-11-08T00:57:59.490Z,7.05
2022-11-08T01:00:27.218Z,6.92
2022-11-08T01:02:54.645Z,6.87
2022-11-08T01:05:23.918Z,6.85
2022-11-08T01:07:50.391Z,6.94
2022-11-08T01:10:18.183Z,6.94
2022-11-08T01:12:46.922Z,6.91
2022-11-08T01:15:13.822Z,6.98
2022-11-08T01:17:42.479Z,6.99
2022-11-08T01:20:08.886Z,6.95
2022-11-08T01:22:35.697Z,6.91
2022-11-08T01:25:02.278Z,6.71
2022-11-08T01:27:28.975Z,6.68
2022-11-08T01:29:55.538Z,6.69
2022-11-08T01:32:22.219Z,6.72
2022-11-08T01:34:49.840Z,6.75
2022-11-08T01:37:16.904Z,6.68
2022-11-08T01:39:43.536Z,6.54
2022-11-08T01:42:10.117Z,6.58
2022-11-08T01:44:37.557Z,6.62
2022-11-08T01:47:04.284Z,6.63
2022-11-08T01:49:33.152Z,6.62
2022-11-08T01:51:59.787Z,6.61
2022-11-08T01:54:26.233Z,6.57
2022-11-08T01:56:52.614Z,6.57
2022-11-08T01:59:19.288Z,6.58
2022-11-08T02:01:46.855Z,6.56
2022-11-08T02:04:13.582Z,6.54
2022-11-08T02:06:40.405Z,6.49
2022-11-08T02:09:07.070Z,6.32
2022-11-08T02:11:35.801Z,6.26
2022-11-08T02:14:03.971Z,6.33
2022-11-08T02:16:30.610Z,6.35
2022-11-08T02:18:57.116Z,6.42
2022-11-08T02:21:24.085Z,6.42
2022-11-08T02:23:50.528Z,6.40
2022-11-08T02:26:18.146Z,6.05
2022-11-08T02:28:45.041Z,5.99
2022-11-08T02:31:11.597Z,5.93
2022-11-08T02:33:38.150Z,6.02
2022-11-08T02:36:04.628Z,6.04
2022-11-08T02:38:31.097Z,6.04
2022-11-08T02:40:57.873Z,6.08
2022-11-08T02:43:25.092Z,6.14
2022-11-08T02:45:51.609Z,6.20
2022-11-08T02:48:18.215Z,6.05
2022-11-08T02:50:45.076Z,6.09
2022-11-08T02:53:11.850Z,6.13
2022-11-08T02:55:38.161Z,6.11
2022-11-08T02:58:06.908Z,5.81
2022-11-08T03:00:34.262Z,5.77
2022-11-08T03:03:00.726Z,5.97
2022-11-08T03:05:27.623Z,5.96
2022-11-08T03:07:54.118Z,5.99
2022-11-08T03:10:20.537Z,5.97
2022-11-08T03:12:47.145Z,5.78
2022-11-08T03:15:14.339Z,5.74
2022-11-08T03:17:40.688Z,5.81
2022-11-08T03:20:07.403Z,5.51
2022-11-08T03:22:33.784Z,5.77
2022-11-08T03:25:00.373Z,5.64
2022-11-08T03:27:27.350Z,5.58
2022-11-08T03:29:53.806Z,5.52
2022-11-08T03:32:20.263Z,5.53
2022-11-08T03:34:47.925Z,5.42
2022-11-08T03:37:14.658Z,5.49
2022-11-08T03:39:41.044Z,5.55
2022-11-08T03:42:07.507Z,5.52
2022-11-08T03:44:33.856Z,5.60
2022-11-08T03:47:00.256Z,5.67
2022-11-08T03:49:27.212Z,5.71
2022-11-08T03:51:54.040Z,5.77
2022-11-08T03:54:20.833Z,5.79
2022-11-08T03:56:47.527Z,5.80
2022-11-08T03:59:13.973Z,5.83
2022-11-08T04:01:40.515Z,5.70
2022-11-08T04:04:07.371Z,5.70
2022-11-08T04:06:33.862Z,5.74
2022-11-08T04:09:00.507Z,5.73
2022-11-08T04:11:27.476Z,5.68
2022-11-08T04:13:53.899Z,5.42
2022-11-08T04:16:20.304Z,5.40
2022-11-08T04:18:47.043Z,5.46
2022-11-08T04:21:14.599Z,5.50
2022-11-08T04:23:41.224Z,5.17
2022-11-08T04:26:07.768Z,5.03
2022-11-08T04:28:34.190Z,5.25
2022-11-08T04:31:00.662Z,5.33
2022-11-08T04:33:27.100Z,5.39
2022-11-08T04:35:54.125Z,5.39
2022-11-08T04:38:20.918Z,5.43
2022-11-08T04:40:47.748Z,5.48
2022-11-08T04:43:14.158Z,5.78
2022-11-08T04:45:40.787Z,5.81
2022-11-08T04:48:07.329Z,5.71
2022-11-08T04:50:33.748Z,5.65
2022-11-08T04:53:00.188Z,5.67
2022-11-08T04:55:26.957Z,5.73
2022-11-08T04:57:53.298Z,5.78
2022-11-08T05:00:19.935Z,5.82
2022-11-08T05:02:47.061Z,5.83
2022-11-08T05:05:13.763Z,5.83
2022-11-08T05:07:40.329Z,5.87
2022-11-08T05:10:07.430Z,5.89
2022-11-08T05:12:34.042Z,5.91
2022-11-08T05:15:00.431Z,5.92
2022-11-08T05:17:26.811Z,5.93
2022-11-08T05:19:53.141Z,5.98
2022-11-08T05:22:19.584Z,6.01
2022-11-08T05:24:46.095Z,6.09
2022-11-08T05:27:12.675Z,6.12
2022-11-08T05:29:42.168Z,6.10
2022-11-08T05:32:08.997Z,6.10
2022-11-08T05:34:35.644Z,6.09
2022-11-08T05:37:02.400Z,6.04
2022-11-08T05:39:32.107Z,6.05
2022-11-08T05:41:58.863Z,6.00
2022-11-08T05:44:25.485Z,5.99
2022-11-08T05:46:52.227Z,6.05
2022-11-08T05:49:18.804Z,6.07
2022-11-08T05:51:45.167Z,6.04
2022-11-08T05:54:12.156Z,6.05
2022-11-08T05:56:38.497Z,6.00
2022-11-08T05:59:05.883Z,6.01
2022-11-08T06:01:32.542Z,6.05
2022-11-08T06:03:59.158Z,6.07
2022-11-08T06:06:27.751Z,6.09
2022-11-08T06:08:54.518Z,6.07
2022-11-08T06:11:21.242Z,6.05
2022-11-08T06:13:47.812Z,6.06
2022-11-08T06:16:14.829Z,6.08
2022-11-08T06:18:43.813Z,6.15
2022-11-08T06:21:10.225Z,6.02
2022-11-08T06:23:36.884Z,6.03
2022-11-08T06:26:03.649Z,6.05
2022-11-08T06:28:30.278Z,5.96
2022-11-08T06:30:57.128Z,5.97
2022-11-08T06:33:23.726Z,6.08
2022-11-08T06:35:50.122Z,6.13
2022-11-08T06:38:16.658Z,6.13
2022-11-08T06:40:46.482Z,6.06
2022-11-08T06:43:19.038Z,6.09
2022-11-08T06:45:46.386Z,6.00
2022-11-08T06:48:12.796Z,6.08
2022-11-08T06:50:39.431Z,5.98
2022-11-08T06:53:06.035Z,6.05
2022-11-08T06:55:34.843Z,6.11
2022-11-08T06:58:01.433Z,6.03
2022-11-08T07:00:27.878Z,6.04
2022-11-08T07:02:54.400Z,6.07
2022-11-08T07:05:20.874Z,6.03
2022-11-08T07:07:47.346Z,6.12
2022-11-08T07:10:13.726Z,6.03
2022-11-08T07:12:40.089Z,6.07
2022-11-08T07:15:07.492Z,6.07
2022-11-08T07:17:38.470Z,6.06
2022-11-08T07:20:07.539Z,6.05
2022-11-08T07:22:34.200Z,6.07
2022-11-08T07:25:00.604Z,6.12
2022-11-08T07:27:28.345Z,6.14
2022-11-08T07:29:55.252Z,6.18
2022-11-08T07:32:21.675Z,6.20
2022-11-08T07:34:51.190Z,6.19
2022-11-08T07:37:17.657Z,6.16
2022-11-08T07:39:44.113Z,6.12
2022-11-08T07:42:11.480Z,6.22
2022-11-08T07:44:38.400Z,6.18
2022-11-08T07:47:04.902Z,6.20
2022-11-08T07:49:31.467Z,6.15
2022-11-08T07:51:58.310Z,6.17
2022-11-08T07:54:24.745Z,6.18
2022-11-08T07:56:54.188Z,6.19
2022-11-08T07:59:22.672Z,6.13
2022-11-08T08:01:49.316Z,6.13
2022-11-08T08:04:15.905Z,5.85
2022-11-08T08:06:42.494Z,5.78
2022-11-08T08:09:09.036Z,5.92
2022-11-08T08:11:35.450Z,6.07
2022-11-08T08:14:01.935Z,6.00
2022-11-08T08:16:28.385Z,5.91
2022-11-08T08:18:56.630Z,6.00
2022-11-08T08:21:23.674Z,6.14
2022-11-08T08:23:50.164Z,6.21
2022-11-08T08:26:16.540Z,6.23
2022-11-08T08:28:42.873Z,6.25
2022-11-08T08:31:09.237Z,6.29
2022-11-08T08:33:36.012Z,6.28
2022-11-08T08:36:02.798Z,6.13
2022-11-08T08:38:29.655Z,6.04
2022-11-08T08:40:56.379Z,6.16
2022-11-08T08:43:23.199Z,6.11
2022-11-08T08:45:49.770Z,6.14
2022-11-08T08:48:16.188Z,6.23
2022-11-08T08:50:43.107Z,6.30
2022-11-08T08:53:10.518Z,6.33
2022-11-08T08:55:36.915Z,6.27
2022-11-08T08:58:03.614Z,6.28
2022-11-08T09:03:18.032Z,6.31
2022-11-08T09:05:44.750Z,6.26
2022-11-08T09:08:11.400Z,6.27
2022-11-08T09:10:38.552Z,6.32
2022-11-08T09:13:04.938Z,6.33
2022-11-08T09:15:31.342Z,6.32
2022-11-08T09:17:58.165Z,6.34
2022-11-08T09:20:24.665Z,6.22
2022-11-08T09:22:51.077Z,6.24
2022-11-08T09:25:17.656Z,6.28
2022-11-08T09:27:46.388Z,6.33
2022-11-08T09:30:15.350Z,6.36
2022-11-08T09:35:28.685Z,6.44
2022-11-08T09:37:55.081Z,6.44
2022-11-08T09:40:22.555Z,6.45
2022-11-08T09:42:49.404Z,6.50
2022-11-08T09:45:15.996Z,6.40
2022-11-08T09:47:42.866Z,6.33
2022-11-08T09:50:09.392Z,6.34
2022-11-08T09:52:36.140Z,6.41
2022-11-08T09:55:02.628Z,6.47
2022-11-08T09:57:29.026Z,6.51
2022-11-08T09:59:55.773Z,6.52
2022-11-08T10:02:23.313Z,6.51
2022-11-08T10:04:49.936Z,6.53
2022-11-08T10:07:16.723Z,6.54
2022-11-08T10:09:43.339Z,6.54
2022-11-08T10:12:09.777Z,6.47
2022-11-08T10:14:44.237Z,6.47
2022-11-08T10:17:15.535Z,6.25
2022-11-08T10:19:41.995Z,6.38
2022-11-08T10:22:08.376Z,6.44
2022-11-08T10:24:34.757Z,6.52
2022-11-08T10:27:01.256Z,6.53
2022-11-08T10:29:27.631Z,6.52
2022-11-08T10:31:54.046Z,6.56
2022-11-08T10:34:20.496Z,6.51
2022-11-08T10:36:47.274Z,6.46
2022-11-08T10:39:13.679Z,6.54
2022-11-08T10:41:40.197Z,6.62
2022-11-08T10:44:06.780Z,6.60
2022-11-08T10:46:33.267Z,6.55
2022-11-08T10:49:00.095Z,6.73
2022-11-08T10:51:26.474Z,6.80
2022-11-08T10:53:53.082Z,6.63
2022-11-08T10:56:19.829Z,6.58
2022-11-08T10:58:46.553Z,6.50
2022-11-08T11:01:12.944Z,6.49
2022-11-08T11:03:39.352Z,6.42
2022-11-08T11:06:08.070Z,6.25
2022-11-08T11:08:34.451Z,6.31
2022-11-08T11:11:02.981Z,6.32
2022-11-08T11:13:29.415Z,6.46
2022-11-08T11:15:55.884Z,6.56
2022-11-08T11:18:22.423Z,6.52
2022-11-08T11:20:48.776Z,6.56
2022-11-08T11:23:15.159Z,6.57
2022-11-08T11:25:41.659Z,6.58
2022-11-08T11:28:08.036Z,6.63
2022-11-08T11:30:34.461Z,6.66
2022-11-08T11:33:01.760Z,6.42
2022-11-08T11:35:28.500Z,6.52
2022-11-08T11:37:55.724Z,6.59
2022-11-08T11:40:24.289Z,6.61
2022-11-08T11:42:50.673Z,6.63
2022-11-08T11:45:17.058Z,6.65
2022-11-08T11:47:44.430Z,6.65
2022-11-08T11:50:12.461Z,6.63
2022-11-08T11:52:39.001Z,6.57
2022-11-08T11:55:05.491Z,6.61
2022-11-08T11:57:31.933Z,6.68
2022-11-08T11:59:58.295Z,6.66
2022-11-08T12:02:25.101Z,6.69
2022-11-08T12:04:54.146Z,6.77
2022-11-08T12:07:20.781Z,6.80
2022-11-08T12:09:47.337Z,6.80
2022-11-08T12:12:14.154Z,6.87
2022-11-08T12:14:40.649Z,6.95
2022-11-08T12:17:07.112Z,6.92
2022-11-08T12:19:33.965Z,6.91
2022-11-08T12:22:00.358Z,7.01
2022-11-08T12:24:26.737Z,7.02
2022-11-08T12:26:53.249Z,7.07
2022-11-08T12:29:19.652Z,7.12
2022-11-08T12:31:46.300Z,7.18
2022-11-08T12:34:14.185Z,7.13
2022-11-08T12:36:40.672Z,7.15
2022-11-08T12:39:07.405Z,7.15
2022-11-08T12:41:33.985Z,7.19
2022-11-08T12:44:00.415Z,7.20
2022-11-08T12:46:27.249Z,7.16
2022-11-08T12:48:54.033Z,7.21
2022-11-08T12:51:20.489Z,7.16
2022-11-08T12:53:47.431Z,7.20
2022-11-08T12:56:13.791Z,7.16
2022-11-08T12:58:40.616Z,7.19
2022-11-08T13:01:08.145Z,7.26
2022-11-08T13:03:34.579Z,7.25
2022-11-08T13:06:00.968Z,7.12
2022-11-08T13:08:27.597Z,7.26
2022-11-08T13:10:54.053Z,7.26
2022-11-08T13:13:20.688Z,7.19
2022-11-08T13:15:47.241Z,7.22
2022-11-08T13:18:13.644Z,7.38
2022-11-08T13:20:40.022Z,7.42
2022-11-08T13:23:06.643Z,7.32
2022-11-08T13:25:33.400Z,7.31
2022-11-08T13:27:59.843Z,7.31
2022-11-08T13:30:26.360Z,7.25
2022-11-08T13:32:55.359Z,7.27
2022-11-08T13:35:21.780Z,7.28
2022-11-08T13:37:48.245Z,7.22
2022-11-08T13:40:14.661Z,7.28
2022-11-08T13:42:41.109Z,6.90
2022-11-08T13:45:07.883Z,6.90
2022-11-08T13:47:34.272Z,7.05
2022-11-08T13:50:00.655Z,7.14
2022-11-08T13:52:27.620Z,7.10
2022-11-08T13:54:54.068Z,7.13
2022-11-08T13:57:20.439Z,7.15
2022-11-08T13:59:47.706Z,7.19
2022-11-08T14:02:14.240Z,7.27
2022-11-08T14:04:43.052Z,7.21
2022-11-08T14:07:10.827Z,7.33
2022-11-08T14:09:37.296Z,7.40
2022-11-08T14:12:03.842Z,7.27
2022-11-08T14:14:30.515Z,7.11
2022-11-08T14:16:56.952Z,7.11
2022-11-08T14:19:23.624Z,7.05
2022-11-08T14:21:50.474Z,7.19
2022-11-08T14:24:16.846Z,7.24
2022-11-08T14:26:43.244Z,7.06
2022-11-08T14:29:09.892Z,6.70
2022-11-08T14:31:36.435Z,6.79
2022-11-08T14:34:02.839Z,6.94
2022-11-08T14:36:29.352Z,7.07
2022-11-08T14:38:55.763Z,6.92
2022-11-08T14:41:22.493Z,6.90
2022-11-08T14:43:49.961Z,7.03
2022-11-08T14:46:16.518Z,7.10
2022-11-08T14:48:43.868Z,6.74
2022-11-08T14:51:10.859Z,7.03
2022-11-08T14:53:39.682Z,7.06
2022-11-08T14:56:06.206Z,6.90
2022-11-08T14:58:33.441Z,6.74
2022-11-08T15:01:00.012Z,6.92
2022-11-08T15:03:27.027Z,6.83
2022-11-08T15:05:53.717Z,6.89
2022-11-08T15:08:20.170Z,6.89
2022-11-08T15:10:46.577Z,6.92
2022-11-08T15:13:13.206Z,7.06
2022-11-08T15:15:39.570Z,7.02
2022-11-08T15:18:06.254Z,6.96
2022-11-08T15:20:33.146Z,7.01
2022-11-08T15:22:59.534Z,7.01
2022-11-08T15:25:25.924Z,6.97
2022-11-08T15:27:53.390Z,6.82
2022-11-08T15:30:19.962Z,6.87
2022-11-08T15:32:47.521Z,6.77
2022-11-08T15:35:14.834Z,6.65
2022-11-08T15:37:41.668Z,6.62
2022-11-08T15:40:08.147Z,6.85
2022-11-08T15:42:35.107Z,6.91
2022-11-08T15:45:03.587Z,6.85
2022-11-08T15:47:30.521Z,7.03
2022-11-08T15:49:57.698Z,7.16
2022-11-08T15:52:24.351Z,7.07
2022-11-08T15:54:51.340Z,6.87
2022-11-08T15:57:18.306Z,6.85
2022-11-08T15:59:54.528Z,6.84
2022-11-08T16:02:21.070Z,6.85
2022-11-08T16:04:48.511Z,6.78
2022-11-08T16:07:15.862Z,6.73
2022-11-08T16:09:42.812Z,6.73
2022-11-08T16:12:09.395Z,6.74
2022-11-08T16:14:38.546Z,6.85
2022-11-08T16:17:14.179Z,6.84
2022-11-08T16:19:41.022Z,6.78
2022-11-08T16:22:08.960Z,6.87
2022-11-08T16:24:35.795Z,6.82
2022-11-08T16:27:02.701Z,6.83
2022-11-08T16:29:34.018Z,6.77
2022-11-08T16:32:00.982Z,6.75
2022-11-08T16:34:27.848Z,6.75
2022-11-08T16:36:55.670Z,6.77
2022-11-08T16:39:22.309Z,6.72
2022-11-08T16:41:50.687Z,6.68
2022-11-08T16:44:17.621Z,6.58
2022-11-08T16:46:52.121Z,6.35
2022-11-08T16:49:19.745Z,6.41
2022-11-08T16:51:51.214Z,6.48
2022-11-08T16:54:18.029Z,6.29
2022-11-08T16:56:45.345Z,5.87
2022-11-08T16:59:13.865Z,6.02
2022-11-08T17:01:41.189Z,6.28
2022-11-08T17:04:08.110Z,6.18
2022-11-08T17:06:34.709Z,6.23
2022-11-08T17:09:02.036Z,6.35
2022-11-08T17:11:30.725Z,6.04
2022-11-08T17:13:57.685Z,5.72
2022-11-08T17:16:24.303Z,5.94
2022-11-08T17:18:52.969Z,6.25
2022-11-08T17:21:44.216Z,6.21
2022-11-08T17:24:09.680Z,6.23
2022-11-08T17:26:37.823Z,6.41
2022-11-08T17:29:04.519Z,6.18
2022-11-08T17:31:32.841Z,6.62
2022-11-08T17:34:00.132Z,7.13
2022-11-08T17:36:29.657Z,6.54
2022-11-08T17:38:56.719Z,5.80
2022-11-08T17:41:24.552Z,6.18
2022-11-08T17:43:51.472Z,6.34
2022-11-08T17:46:18.353Z,6.30
2022-11-08T17:48:44.792Z,6.35
2022-11-08T17:51:11.746Z,6.44
2022-11-08T17:53:38.613Z,6.32
2022-11-08T17:56:05.343Z,6.42
2022-11-08T17:58:35.386Z,6.48
2022-11-08T18:01:02.681Z,6.20
2022-11-08T18:03:29.764Z,6.31
2022-11-08T18:05:58.889Z,6.40
2022-11-08T18:08:27.394Z,6.36
2022-11-08T18:10:55.318Z,5.53
2022-11-08T18:13:25.959Z,5.78
2022-11-08T18:15:55.410Z,5.94
2022-11-08T18:18:22.308Z,6.20
2022-11-08T18:20:49.540Z,6.18
2022-11-08T18:23:17.840Z,6.39
2022-11-08T18:25:45.171Z,6.39
2022-11-08T18:28:12.130Z,6.41
2022-11-08T18:30:38.632Z,6.61
2022-11-08T18:33:05.604Z,6.30
2022-11-08T18:35:35.321Z,6.32
2022-11-08T18:38:03.324Z,6.49
2022-11-08T18:40:34.267Z,6.52
2022-11-08T18:43:00.845Z,6.45
2022-11-08T18:45:27.840Z,6.45
2022-11-08T18:47:57.944Z,6.51
2022-11-08T18:50:24.899Z,6.43
2022-11-08T18:52:52.105Z,6.44
2022-11-08T18:55:19.146Z,6.47
2022-11-08T18:57:45.907Z,6.63
2022-11-08T19:00:13.049Z,6.70
2022-11-08T19:02:40.014Z,6.61
2022-11-08T19:05:07.099Z,6.63
2022-11-08T19:07:34.295Z,6.65
2022-11-08T19:10:01.167Z,6.60
2022-11-08T19:12:28.217Z,6.61
2022-11-08T19:14:55.475Z,6.79
2022-11-08T19:17:23.071Z,6.91
2022-11-08T19:19:50.273Z,6.80
2022-11-08T19:22:17.493Z,6.75
2022-11-08T19:24:44.451Z,6.61
2022-11-08T19:27:10.960Z,6.60
2022-11-08T19:29:39.167Z,6.63
2022-11-08T19:32:06.113Z,6.64
2022-11-08T19:34:33.116Z,6.65
2022-11-08T19:37:00.859Z,6.63
2022-11-08T19:39:28.545Z,6.70
2022-11-08T19:41:55.826Z,6.75
2022-11-08T19:44:24.176Z,7.25
2022-11-08T19:46:51.128Z,7.41
2022-11-08T19:49:17.733Z,7.33
2022-11-08T19:51:44.601Z,7.18
2022-11-08T19:54:15.018Z,7.36
2022-11-08T19:57:03.781Z,7.22
2022-11-08T19:59:29.588Z,7.09
2022-11-08T20:01:56.616Z,7.11
2022-11-08T20:04:24.840Z,7.23
2022-11-08T20:06:51.891Z,7.13
2022-11-08T20:09:22.699Z,7.01
2022-11-08T20:11:53.395Z,6.98
2022-11-08T20:14:23.147Z,6.89
2022-11-08T20:16:53.446Z,7.16
2022-11-08T20:19:21.056Z,7.11
2022-11-08T20:21:47.552Z,6.97
2022-11-08T20:24:14.841Z,6.91
2022-11-08T20:26:43.343Z,6.69
2022-11-08T20:29:10.287Z,6.75
2022-11-08T20:31:38.770Z,6.74
2022-11-08T20:34:06.260Z,6.77
2022-11-08T20:36:35.316Z,6.80
2022-11-08T20:39:06.792Z,6.74
2022-11-08T20:41:35.802Z,6.80
2022-11-08T20:44:03.177Z,6.69
2022-11-08T20:46:30.171Z,6.73
2022-11-08T20:49:01.195Z,6.74
2022-11-08T20:51:30.507Z,6.66
2022-11-08T20:53:57.522Z,6.72
2022-11-08T20:56:24.358Z,6.76
2022-11-08T20:58:51.252Z,6.80
2022-11-08T21:01:18.156Z,6.79
2022-11-08T21:03:45.274Z,6.84
2022-11-08T21:06:13.296Z,6.86
2022-11-08T21:11:28.619Z,6.83
2022-11-08T21:13:55.957Z,6.79
2022-11-08T21:16:35.069Z,6.80
2022-11-08T21:19:05.028Z,6.86
2022-11-08T21:21:32.170Z,6.82
2022-11-08T21:24:00.650Z,6.83
2022-11-08T21:26:27.519Z,6.85
2022-11-08T21:28:54.349Z,6.84
2022-11-08T21:31:20.852Z,6.89
2022-11-08T21:33:48.706Z,6.88
2022-11-08T21:36:15.208Z,6.86
2022-11-08T21:38:41.944Z,6.86
2022-11-08T21:41:08.404Z,6.88
2022-11-08T21:43:34.883Z,6.87
2022-11-08T21:46:01.353Z,6.86
2022-11-08T21:48:28.140Z,6.90
2022-11-08T21:50:54.473Z,6.92
2022-11-08T21:53:21.796Z,6.94
2022-11-08T21:55:52.847Z,7.04
2022-11-08T21:58:19.711Z,6.96
2022-11-08T22:00:46.594Z,6.89
2022-11-08T22:03:14.380Z,6.90
2022-11-08T22:05:40.906Z,6.85
2022-11-08T22:08:07.376Z,6.91
2022-11-08T22:10:36.204Z,6.68
2022-11-08T22:13:02.585Z,6.57
2022-11-08T22:15:29.285Z,6.75
2022-11-08T22:20:42.623Z,6.87
2022-11-08T22:23:09.299Z,6.88
2022-11-08T22:25:35.742Z,6.86
2022-11-08T22:28:02.389Z,6.85
2022-11-08T22:30:29.078Z,6.93
2022-11-08T22:32:55.721Z,6.95
2022-11-08T22:35:22.290Z,6.88
2022-11-08T22:37:51.070Z,7.03
2022-11-08T22:40:17.437Z,6.96
2022-11-08T22:42:45.059Z,7.12
2022-11-08T22:45:12.889Z,7.18
2022-11-08T22:47:39.319Z,7.13
2022-11-08T22:50:05.782Z,7.09
2022-11-08T22:52:32.474Z,7.00
2022-11-08T22:55:00.950Z,7.02
2022-11-08T22:57:27.287Z,6.93
2022-11-08T22:59:54.497Z,7.07
2022-11-08T23:02:20.892Z,7.04
2022-11-08T23:04:47.260Z,6.94
2022-11-08T23:07:14.017Z,7.10
2022-11-08T23:09:40.483Z,7.04
2022-11-08T23:12:06.838Z,7.14
2022-11-08T23:14:37.524Z,7.13
2022-11-08T23:17:04.260Z,7.12
2022-11-08T23:19:30.746Z,7.03
2022-11-08T23:21:57.700Z,6.95
2022-11-08T23:24:24.388Z,7.01
2022-11-08T23:26:52.119Z,6.98
2022-11-08T23:29:19.997Z,6.98
2022-11-08T23:31:49.449Z,6.84
2022-11-08T23:34:15.888Z,6.79
2022-11-08T23:36:42.714Z,6.87
2022-11-08T23:39:09.201Z,6.98
2022-11-08T23:41:35.864Z,7.04
2022-11-08T23:44:04.146Z,7.12
2022-11-08T23:46:30.903Z,7.03
2022-11-08T23:48:57.431Z,7.02
2022-11-08T23:51:24.788Z,7.07
2022-11-08T23:53:51.437Z,6.93
2022-11-08T23:56:18.087Z,6.96
2022-11-08T23:58:44.679Z,6.95
